sensor_id;sensor_type;location;lat;lon;timestamp;P1;durP1;ratioP1;P2;durP2;ratioP2
64932;SDS011;51446;53.850;10.662;2022-09-09T00:04:37;35.55;;;18.90;;
64932;SDS011;51446;53.850;10.662;2022-09-09T00:07:14;31.63;;;17.20;;
64932;SDS011;51446;53.850;10.662;2022-09-09T00:10:13;41.17;;;20.23;;
64932;SDS011;51446;53.850;10.662;2022-09-09T00:15:45;41.35;;;20.38;;
64932;SDS011;51446;53.850;10.662;2022-09-09T00:21:08;35.47;;;19.67;;
64932;SDS011;51446;53.850;10.662;2022-09-09T00:23:43;39.95;;;20.35;;
64932;SDS011;51446;53.850;10.662;2022-09-09T00:29:12;38.45;;;19.67;;
64932;SDS011;51446;53.850;10.662;2022-09-09T00:31:47;41.50;;;22.23;;
64932;SDS011;51446;53.850;10.662;2022-09-09T00:34:14;43.13;;;20.73;;
64932;SDS011;51446;53.850;10.662;2022-09-09T00:36:43;41.10;;;20.95;;
64932;SDS011;51446;53.850;10.662;2022-09-09T00:42:16;39.30;;;20.47;;
64932;SDS011;51446;53.850;10.662;2022-09-09T00:47:52;37.67;;;21.42;;
64932;SDS011;51446;53.850;10.662;2022-09-09T00:53:27;37.63;;;21.60;;
64932;SDS011;51446;53.850;10.662;2022-09-09T00:58:26;33.13;;;19.90;;
64932;SDS011;51446;53.850;10.662;2022-09-09T01:00:54;35.65;;;20.30;;
64932;SDS011;51446;53.850;10.662;2022-09-09T01:06:13;31.38;;;19.30;;
64932;SDS011;51446;53.850;10.662;2022-09-09T01:08:59;33.33;;;19.77;;
64932;SDS011;51446;53.850;10.662;2022-09-09T01:17:03;29.50;;;17.65;;
64932;SDS011;51446;53.850;10.662;2022-09-09T01:19:37;28.92;;;18.30;;
64932;SDS011;51446;53.850;10.662;2022-09-09T01:22:33;32.27;;;19.60;;
64932;SDS011;51446;53.850;10.662;2022-09-09T01:25:22;28.02;;;18.75;;
64932;SDS011;51446;53.850;10.662;2022-09-09T01:28:04;29.08;;;18.63;;
64932;SDS011;51446;53.850;10.662;2022-09-09T01:30:37;31.77;;;19.20;;
64932;SDS011;51446;53.850;10.662;2022-09-09T01:33:03;30.13;;;19.60;;
64932;SDS011;51446;53.850;10.662;2022-09-09T01:35:48;30.90;;;19.77;;
64932;SDS011;51446;53.850;10.662;2022-09-09T01:38:22;29.88;;;17.85;;
64932;SDS011;51446;53.850;10.662;2022-09-09T01:40:48;30.75;;;17.13;;
64932;SDS011;51446;53.850;10.662;2022-09-09T01:43:16;29.63;;;16.57;;
64932;SDS011;51446;53.850;10.662;2022-09-09T01:45:42;25.75;;;17.63;;
64932;SDS011;51446;53.850;10.662;2022-09-09T01:48:10;25.35;;;17.27;;
64932;SDS011;51446;53.850;10.662;2022-09-09T01:50:35;26.03;;;16.90;;
64932;SDS011;51446;53.850;10.662;2022-09-09T01:53:01;28.40;;;18.57;;
64932;SDS011;51446;53.850;10.662;2022-09-09T01:55:40;30.80;;;18.35;;
64932;SDS011;51446;53.850;10.662;2022-09-09T01:58:17;27.48;;;16.77;;
64932;SDS011;51446;53.850;10.662;2022-09-09T02:01:03;28.03;;;18.10;;
64932;SDS011;51446;53.850;10.662;2022-09-09T02:03:39;28.58;;;18.10;;
64932;SDS011;51446;53.850;10.662;2022-09-09T02:06:20;28.40;;;16.98;;
64932;SDS011;51446;53.850;10.662;2022-09-09T02:08:48;27.80;;;17.92;;
64932;SDS011;51446;53.850;10.662;2022-09-09T02:11:16;27.02;;;17.35;;
64932;SDS011;51446;53.850;10.662;2022-09-09T02:13:42;27.43;;;18.50;;
64932;SDS011;51446;53.850;10.662;2022-09-09T02:16:15;28.10;;;16.00;;
64932;SDS011;51446;53.850;10.662;2022-09-09T02:21:37;27.80;;;17.38;;
64932;SDS011;51446;53.850;10.662;2022-09-09T02:24:06;27.10;;;17.40;;
64932;SDS011;51446;53.850;10.662;2022-09-09T02:26:35;25.80;;;17.03;;
64932;SDS011;51446;53.850;10.662;2022-09-09T02:29:05;29.65;;;18.63;;
64932;SDS011;51446;53.850;10.662;2022-09-09T02:31:34;28.67;;;17.40;;
64932;SDS011;51446;53.850;10.662;2022-09-09T02:34:02;33.33;;;19.48;;
64932;SDS011;51446;53.850;10.662;2022-09-09T02:36:31;30.35;;;18.90;;
64932;SDS011;51446;53.850;10.662;2022-09-09T02:38:58;31.33;;;18.17;;
64932;SDS011;51446;53.850;10.662;2022-09-09T02:41:32;28.42;;;17.42;;
64932;SDS011;51446;53.850;10.662;2022-09-09T02:44:00;35.05;;;20.50;;
64932;SDS011;51446;53.850;10.662;2022-09-09T02:46:36;29.48;;;18.25;;
64932;SDS011;51446;53.850;10.662;2022-09-09T02:49:15;31.57;;;18.37;;
64932;SDS011;51446;53.850;10.662;2022-09-09T02:52:02;30.65;;;17.48;;
64932;SDS011;51446;53.850;10.662;2022-09-09T02:54:32;25.17;;;15.20;;
64932;SDS011;51446;53.850;10.662;2022-09-09T02:59:58;28.35;;;18.38;;
64932;SDS011;51446;53.850;10.662;2022-09-09T03:02:23;30.53;;;16.53;;
64932;SDS011;51446;53.850;10.662;2022-09-09T03:04:50;31.38;;;17.90;;
64932;SDS011;51446;53.850;10.662;2022-09-09T03:07:17;25.30;;;16.17;;
64932;SDS011;51446;53.850;10.662;2022-09-09T03:09:43;29.27;;;18.05;;
64932;SDS011;51446;53.850;10.662;2022-09-09T03:12:09;24.85;;;16.77;;
64932;SDS011;51446;53.850;10.662;2022-09-09T03:14:36;26.87;;;16.37;;
64932;SDS011;51446;53.850;10.662;2022-09-09T03:17:01;26.10;;;15.93;;
64932;SDS011;51446;53.850;10.662;2022-09-09T03:19:27;29.47;;;18.07;;
64932;SDS011;51446;53.850;10.662;2022-09-09T03:21:52;28.43;;;16.43;;
64932;SDS011;51446;53.850;10.662;2022-09-09T03:24:18;29.63;;;17.20;;
64932;SDS011;51446;53.850;10.662;2022-09-09T03:26:43;31.43;;;17.60;;
64932;SDS011;51446;53.850;10.662;2022-09-09T03:29:09;23.80;;;15.70;;
64932;SDS011;51446;53.850;10.662;2022-09-09T03:31:37;26.48;;;16.27;;
64932;SDS011;51446;53.850;10.662;2022-09-09T03:34:02;25.63;;;16.33;;
64932;SDS011;51446;53.850;10.662;2022-09-09T03:36:28;28.20;;;17.77;;
64932;SDS011;51446;53.850;10.662;2022-09-09T03:38:54;27.75;;;17.73;;
64932;SDS011;51446;53.850;10.662;2022-09-09T03:41:20;30.43;;;16.20;;
64932;SDS011;51446;53.850;10.662;2022-09-09T03:43:48;27.90;;;17.10;;
64932;SDS011;51446;53.850;10.662;2022-09-09T03:46:15;27.40;;;17.15;;
64932;SDS011;51446;53.850;10.662;2022-09-09T03:48:40;31.10;;;17.60;;
64932;SDS011;51446;53.850;10.662;2022-09-09T03:51:05;27.07;;;17.73;;
64932;SDS011;51446;53.850;10.662;2022-09-09T03:53:30;26.40;;;17.13;;
64932;SDS011;51446;53.850;10.662;2022-09-09T03:55:57;27.80;;;16.85;;
64932;SDS011;51446;53.850;10.662;2022-09-09T03:58:24;26.48;;;16.83;;
64932;SDS011;51446;53.850;10.662;2022-09-09T04:01:02;28.57;;;18.57;;
64932;SDS011;51446;53.850;10.662;2022-09-09T04:03:30;28.25;;;17.73;;
64932;SDS011;51446;53.850;10.662;2022-09-09T04:05:57;26.67;;;16.90;;
64932;SDS011;51446;53.850;10.662;2022-09-09T04:08:24;33.08;;;18.65;;
64932;SDS011;51446;53.850;10.662;2022-09-09T04:10:50;27.30;;;16.98;;
64932;SDS011;51446;53.850;10.662;2022-09-09T04:13:17;26.20;;;16.57;;
64932;SDS011;51446;53.850;10.662;2022-09-09T04:15:43;27.58;;;16.95;;
64932;SDS011;51446;53.850;10.662;2022-09-09T04:18:10;28.02;;;17.98;;
64932;SDS011;51446;53.850;10.662;2022-09-09T04:20:36;31.75;;;18.50;;
64932;SDS011;51446;53.850;10.662;2022-09-09T04:23:01;32.33;;;20.10;;
64932;SDS011;51446;53.850;10.662;2022-09-09T04:25:27;30.17;;;18.90;;
64932;SDS011;51446;53.850;10.662;2022-09-09T04:27:55;33.43;;;19.47;;
64932;SDS011;51446;53.850;10.662;2022-09-09T04:30:23;31.20;;;18.95;;
64932;SDS011;51446;53.850;10.662;2022-09-09T04:32:49;29.27;;;18.35;;
64932;SDS011;51446;53.850;10.662;2022-09-09T04:35:14;30.17;;;19.27;;
64932;SDS011;51446;53.850;10.662;2022-09-09T04:37:40;30.80;;;18.60;;
64932;SDS011;51446;53.850;10.662;2022-09-09T04:40:05;32.97;;;19.63;;
64932;SDS011;51446;53.850;10.662;2022-09-09T04:42:35;31.05;;;19.17;;
64932;SDS011;51446;53.850;10.662;2022-09-09T04:45:00;34.88;;;20.42;;
64932;SDS011;51446;53.850;10.662;2022-09-09T04:47:26;30.60;;;19.30;;
64932;SDS011;51446;53.850;10.662;2022-09-09T04:49:51;30.83;;;19.33;;
64932;SDS011;51446;53.850;10.662;2022-09-09T04:52:19;33.03;;;20.77;;
64932;SDS011;51446;53.850;10.662;2022-09-09T04:54:44;34.38;;;19.73;;
64932;SDS011;51446;53.850;10.662;2022-09-09T04:57:10;36.00;;;20.77;;
64932;SDS011;51446;53.850;10.662;2022-09-09T04:59:36;31.65;;;19.27;;
64932;SDS011;51446;53.850;10.662;2022-09-09T05:02:02;33.77;;;20.73;;
64932;SDS011;51446;53.850;10.662;2022-09-09T05:04:28;33.50;;;20.15;;
64932;SDS011;51446;53.850;10.662;2022-09-09T05:06:54;30.80;;;19.20;;
64932;SDS011;51446;53.850;10.662;2022-09-09T05:09:19;31.93;;;19.17;;
64932;SDS011;51446;53.850;10.662;2022-09-09T05:11:44;31.87;;;20.13;;
64932;SDS011;51446;53.850;10.662;2022-09-09T05:14:09;30.77;;;18.87;;
64932;SDS011;51446;53.850;10.662;2022-09-09T05:16:37;31.02;;;19.10;;
64932;SDS011;51446;53.850;10.662;2022-09-09T05:19:02;33.40;;;18.30;;
64932;SDS011;51446;53.850;10.662;2022-09-09T05:21:28;29.98;;;17.52;;
64932;SDS011;51446;53.850;10.662;2022-09-09T05:23:55;28.20;;;17.08;;
64932;SDS011;51446;53.850;10.662;2022-09-09T05:26:21;28.80;;;17.37;;
64932;SDS011;51446;53.850;10.662;2022-09-09T05:28:47;23.60;;;16.10;;
64932;SDS011;51446;53.850;10.662;2022-09-09T05:31:13;27.55;;;17.42;;
64932;SDS011;51446;53.850;10.662;2022-09-09T05:33:41;27.92;;;17.65;;
64932;SDS011;51446;53.850;10.662;2022-09-09T05:36:26;26.83;;;17.40;;
64932;SDS011;51446;53.850;10.662;2022-09-09T05:38:51;28.27;;;17.33;;
64932;SDS011;51446;53.850;10.662;2022-09-09T05:41:19;27.63;;;15.98;;
64932;SDS011;51446;53.850;10.662;2022-09-09T05:43:45;23.95;;;15.60;;
64932;SDS011;51446;53.850;10.662;2022-09-09T05:46:14;25.08;;;16.55;;
64932;SDS011;51446;53.850;10.662;2022-09-09T05:48:45;23.03;;;15.97;;
64932;SDS011;51446;53.850;10.662;2022-09-09T05:51:11;22.88;;;15.52;;
64932;SDS011;51446;53.850;10.662;2022-09-09T05:53:40;23.38;;;14.95;;
64932;SDS011;51446;53.850;10.662;2022-09-09T05:56:16;21.92;;;14.57;;
64932;SDS011;51446;53.850;10.662;2022-09-09T05:58:44;28.13;;;16.17;;
64932;SDS011;51446;53.850;10.662;2022-09-09T06:01:16;24.47;;;15.67;;
64932;SDS011;51446;53.850;10.662;2022-09-09T06:03:43;21.92;;;14.88;;
64932;SDS011;51446;53.850;10.662;2022-09-09T06:06:10;20.17;;;14.35;;
64932;SDS011;51446;53.850;10.662;2022-09-09T06:08:38;22.05;;;14.88;;
64932;SDS011;51446;53.850;10.662;2022-09-09T06:11:06;21.20;;;14.82;;
64932;SDS011;51446;53.850;10.662;2022-09-09T06:13:33;18.40;;;13.77;;
64932;SDS011;51446;53.850;10.662;2022-09-09T06:16:00;20.88;;;14.00;;
64932;SDS011;51446;53.850;10.662;2022-09-09T06:18:25;21.27;;;13.97;;
64932;SDS011;51446;53.850;10.662;2022-09-09T06:20:54;23.67;;;14.50;;
64932;SDS011;51446;53.850;10.662;2022-09-09T06:23:25;21.40;;;13.48;;
64932;SDS011;51446;53.850;10.662;2022-09-09T06:25:51;18.85;;;14.05;;
64932;SDS011;51446;53.850;10.662;2022-09-09T06:28:25;19.05;;;13.55;;
64932;SDS011;51446;53.850;10.662;2022-09-09T06:30:56;24.33;;;14.13;;
64932;SDS011;51446;53.850;10.662;2022-09-09T06:33:25;19.40;;;13.37;;
64932;SDS011;51446;53.850;10.662;2022-09-09T06:35:53;17.13;;;12.77;;
64932;SDS011;51446;53.850;10.662;2022-09-09T06:38:20;16.07;;;12.10;;
64932;SDS011;51446;53.850;10.662;2022-09-09T06:40:53;16.35;;;12.50;;
64932;SDS011;51446;53.850;10.662;2022-09-09T06:43:19;18.27;;;11.27;;
64932;SDS011;51446;53.850;10.662;2022-09-09T06:45:52;18.98;;;12.23;;
64932;SDS011;51446;53.850;10.662;2022-09-09T06:48:29;15.73;;;11.17;;
64932;SDS011;51446;53.850;10.662;2022-09-09T06:51:04;19.40;;;11.83;;
64932;SDS011;51446;53.850;10.662;2022-09-09T06:53:34;17.63;;;10.85;;
64932;SDS011;51446;53.850;10.662;2022-09-09T06:56:01;16.98;;;11.27;;
64932;SDS011;51446;53.850;10.662;2022-09-09T06:58:44;15.70;;;11.15;;
64932;SDS011;51446;53.850;10.662;2022-09-09T07:01:11;14.13;;;9.82;;
64932;SDS011;51446;53.850;10.662;2022-09-09T07:03:38;17.87;;;11.73;;
64932;SDS011;51446;53.850;10.662;2022-09-09T07:06:04;14.48;;;10.93;;
64932;SDS011;51446;53.850;10.662;2022-09-09T07:08:31;16.50;;;11.35;;
64932;SDS011;51446;53.850;10.662;2022-09-09T07:11:03;15.07;;;10.37;;
64932;SDS011;51446;53.850;10.662;2022-09-09T07:13:30;16.25;;;10.15;;
64932;SDS011;51446;53.850;10.662;2022-09-09T07:15:55;13.30;;;9.38;;
64932;SDS011;51446;53.850;10.662;2022-09-09T07:18:28;13.87;;;9.57;;
64932;SDS011;51446;53.850;10.662;2022-09-09T07:20:55;10.43;;;7.95;;
64932;SDS011;51446;53.850;10.662;2022-09-09T07:23:22;8.55;;;6.93;;
64932;SDS011;51446;53.850;10.662;2022-09-09T07:25:47;11.77;;;7.25;;
64932;SDS011;51446;53.850;10.662;2022-09-09T07:28:13;10.80;;;7.17;;
64932;SDS011;51446;53.850;10.662;2022-09-09T07:30:39;9.50;;;7.20;;
64932;SDS011;51446;53.850;10.662;2022-09-09T07:33:05;11.23;;;7.83;;
64932;SDS011;51446;53.850;10.662;2022-09-09T07:35:30;16.90;;;7.47;;
64932;SDS011;51446;53.850;10.662;2022-09-09T07:37:55;9.77;;;7.10;;
64932;SDS011;51446;53.850;10.662;2022-09-09T07:40:21;8.60;;;6.47;;
64932;SDS011;51446;53.850;10.662;2022-09-09T07:42:47;9.27;;;6.47;;
64932;SDS011;51446;53.850;10.662;2022-09-09T07:45:12;8.55;;;5.60;;
64932;SDS011;51446;53.850;10.662;2022-09-09T07:47:39;5.60;;;4.68;;
64932;SDS011;51446;53.850;10.662;2022-09-09T07:50:06;8.73;;;4.40;;
64932;SDS011;51446;53.850;10.662;2022-09-09T07:52:33;5.65;;;3.53;;
64932;SDS011;51446;53.850;10.662;2022-09-09T07:54:58;5.60;;;3.60;;
64932;SDS011;51446;53.850;10.662;2022-09-09T07:57:24;5.20;;;3.87;;
64932;SDS011;51446;53.850;10.662;2022-09-09T07:59:50;5.47;;;3.17;;
64932;SDS011;51446;53.850;10.662;2022-09-09T08:02:15;4.20;;;3.30;;
64932;SDS011;51446;53.850;10.662;2022-09-09T08:04:40;4.23;;;3.20;;
64932;SDS011;51446;53.850;10.662;2022-09-09T08:07:06;4.60;;;3.10;;
64932;SDS011;51446;53.850;10.662;2022-09-09T08:09:31;4.47;;;2.90;;
64932;SDS011;51446;53.850;10.662;2022-09-09T08:11:58;5.65;;;2.92;;
64932;SDS011;51446;53.850;10.662;2022-09-09T08:14:24;5.03;;;3.17;;
64932;SDS011;51446;53.850;10.662;2022-09-09T08:16:50;5.83;;;3.80;;
64932;SDS011;51446;53.850;10.662;2022-09-09T08:19:15;5.32;;;3.65;;
64932;SDS011;51446;53.850;10.662;2022-09-09T08:21:42;6.60;;;4.43;;
64932;SDS011;51446;53.850;10.662;2022-09-09T08:24:09;5.63;;;3.90;;
64932;SDS011;51446;53.850;10.662;2022-09-09T08:26:39;6.97;;;3.80;;
64932;SDS011;51446;53.850;10.662;2022-09-09T08:29:07;4.65;;;3.70;;
64932;SDS011;51446;53.850;10.662;2022-09-09T08:31:36;5.68;;;4.03;;
64932;SDS011;51446;53.850;10.662;2022-09-09T08:34:03;7.03;;;4.30;;
64932;SDS011;51446;53.850;10.662;2022-09-09T08:36:30;5.22;;;4.05;;
64932;SDS011;51446;53.850;10.662;2022-09-09T08:39:00;6.32;;;4.25;;
64932;SDS011;51446;53.850;10.662;2022-09-09T08:41:40;7.10;;;4.13;;
64932;SDS011;51446;53.850;10.662;2022-09-09T08:44:10;4.63;;;3.70;;
64932;SDS011;51446;53.850;10.662;2022-09-09T08:52:24;6.13;;;4.57;;
64932;SDS011;51446;53.850;10.662;2022-09-09T08:54:53;6.10;;;4.82;;
64932;SDS011;51446;53.850;10.662;2022-09-09T08:57:24;5.27;;;4.77;;
64932;SDS011;51446;53.850;10.662;2022-09-09T08:59:52;7.43;;;4.20;;
64932;SDS011;51446;53.850;10.662;2022-09-09T09:02:25;7.45;;;4.70;;
64932;SDS011;51446;53.850;10.662;2022-09-09T09:05:00;5.63;;;4.45;;
64932;SDS011;51446;53.850;10.662;2022-09-09T09:07:50;6.60;;;4.47;;
64932;SDS011;51446;53.850;10.662;2022-09-09T09:10:49;8.93;;;4.90;;
64932;SDS011;51446;53.850;10.662;2022-09-09T09:15:57;8.95;;;4.40;;
64932;SDS011;51446;53.850;10.662;2022-09-09T09:18:27;3.88;;;3.38;;
64932;SDS011;51446;53.850;10.662;2022-09-09T09:23:26;4.78;;;3.50;;
64932;SDS011;51446;53.850;10.662;2022-09-09T09:26:00;4.80;;;3.15;;
64932;SDS011;51446;53.850;10.662;2022-09-09T09:28:27;3.03;;;2.60;;
64932;SDS011;51446;53.850;10.662;2022-09-09T09:30:56;4.13;;;2.90;;
64932;SDS011;51446;53.850;10.662;2022-09-09T09:36:05;3.60;;;2.90;;
64932;SDS011;51446;53.850;10.662;2022-09-09T09:38:34;3.92;;;3.17;;
64932;SDS011;51446;53.850;10.662;2022-09-09T09:41:01;5.60;;;2.97;;
64932;SDS011;51446;53.850;10.662;2022-09-09T09:43:34;6.15;;;2.80;;
64932;SDS011;51446;53.850;10.662;2022-09-09T09:46:04;5.82;;;2.45;;
64932;SDS011;51446;53.850;10.662;2022-09-09T09:48:30;7.27;;;2.70;;
64932;SDS011;51446;53.850;10.662;2022-09-09T09:53:34;2.80;;;2.17;;
64932;SDS011;51446;53.850;10.662;2022-09-09T09:56:10;5.07;;;2.30;;
64932;SDS011;51446;53.850;10.662;2022-09-09T10:03:53;4.65;;;2.00;;
64932;SDS011;51446;53.850;10.662;2022-09-09T10:06:34;4.82;;;2.10;;
64932;SDS011;51446;53.850;10.662;2022-09-09T10:09:03;3.80;;;2.20;;
64932;SDS011;51446;53.850;10.662;2022-09-09T10:14:21;3.33;;;2.00;;
64932;SDS011;51446;53.850;10.662;2022-09-09T10:19:58;3.28;;;1.85;;
64932;SDS011;51446;53.850;10.662;2022-09-09T10:22:44;4.45;;;2.40;;
64932;SDS011;51446;53.850;10.662;2022-09-09T10:28:23;4.83;;;2.07;;
64932;SDS011;51446;53.850;10.662;2022-09-09T10:33:51;4.93;;;2.30;;
64932;SDS011;51446;53.850;10.662;2022-09-09T10:36:26;3.75;;;2.17;;
64932;SDS011;51446;53.850;10.662;2022-09-09T10:39:00;4.93;;;2.42;;
64932;SDS011;51446;53.850;10.662;2022-09-09T10:44:20;2.65;;;1.73;;
64932;SDS011;51446;53.850;10.662;2022-09-09T10:57:36;3.88;;;0.98;;
64932;SDS011;51446;53.850;10.662;2022-09-09T11:00:13;2.15;;;0.75;;
64932;SDS011;51446;53.850;10.662;2022-09-09T11:02:44;6.30;;;1.00;;
64932;SDS011;51446;53.850;10.662;2022-09-09T11:05:24;1.95;;;0.90;;
64932;SDS011;51446;53.850;10.662;2022-09-09T11:08:03;1.40;;;0.60;;
64932;SDS011;51446;53.850;10.662;2022-09-09T11:10:36;2.00;;;0.70;;
64932;SDS011;51446;53.850;10.662;2022-09-09T11:18:45;1.60;;;0.60;;
64932;SDS011;51446;53.850;10.662;2022-09-09T11:24:22;1.88;;;0.70;;
64932;SDS011;51446;53.850;10.662;2022-09-09T11:27:05;1.70;;;0.70;;
64932;SDS011;51446;53.850;10.662;2022-09-09T11:32:38;4.10;;;0.80;;
64932;SDS011;51446;53.850;10.662;2022-09-09T11:35:33;2.80;;;0.60;;
64932;SDS011;51446;53.850;10.662;2022-09-09T11:38:13;2.90;;;0.77;;
64932;SDS011;51446;53.850;10.662;2022-09-09T11:40:40;1.23;;;0.55;;
64932;SDS011;51446;53.850;10.662;2022-09-09T11:45:51;2.08;;;0.80;;
64932;SDS011;51446;53.850;10.662;2022-09-09T11:48:22;2.20;;;0.70;;
64932;SDS011;51446;53.850;10.662;2022-09-09T11:53:52;1.25;;;0.60;;
64932;SDS011;51446;53.850;10.662;2022-09-09T11:59:19;1.88;;;0.60;;
64932;SDS011;51446;53.850;10.662;2022-09-09T12:07:21;3.07;;;0.93;;
64932;SDS011;51446;53.850;10.662;2022-09-09T12:09:56;2.80;;;0.60;;
64932;SDS011;51446;53.850;10.662;2022-09-09T12:12:27;2.20;;;0.80;;
64932;SDS011;51446;53.850;10.662;2022-09-09T12:15:01;3.25;;;0.85;;
64932;SDS011;51446;53.850;10.662;2022-09-09T12:17:42;3.95;;;0.77;;
64932;SDS011;51446;53.850;10.662;2022-09-09T12:26:03;3.50;;;0.88;;
64932;SDS011;51446;53.850;10.662;2022-09-09T12:28:46;1.80;;;0.80;;
64932;SDS011;51446;53.850;10.662;2022-09-09T12:36:39;3.30;;;0.90;;
64932;SDS011;51446;53.850;10.662;2022-09-09T12:39:10;2.28;;;0.60;;
64932;SDS011;51446;53.850;10.662;2022-09-09T12:41:50;1.67;;;0.60;;
64932;SDS011;51446;53.850;10.662;2022-09-09T12:44:21;1.67;;;0.70;;
64932;SDS011;51446;53.850;10.662;2022-09-09T12:46:46;3.50;;;0.63;;
64932;SDS011;51446;53.850;10.662;2022-09-09T12:49:24;2.23;;;0.80;;
64932;SDS011;51446;53.850;10.662;2022-09-09T12:52:04;1.77;;;0.70;;
64932;SDS011;51446;53.850;10.662;2022-09-09T12:54:42;3.63;;;0.60;;
64932;SDS011;51446;53.850;10.662;2022-09-09T12:57:11;1.83;;;0.90;;
64932;SDS011;51446;53.850;10.662;2022-09-09T12:59:39;2.88;;;0.80;;
64932;SDS011;51446;53.850;10.662;2022-09-09T13:02:11;2.55;;;1.17;;
64932;SDS011;51446;53.850;10.662;2022-09-09T13:04:43;1.42;;;0.63;;
64932;SDS011;51446;53.850;10.662;2022-09-09T13:07:10;2.50;;;0.80;;
64932;SDS011;51446;53.850;10.662;2022-09-09T13:09:36;1.45;;;0.80;;
64932;SDS011;51446;53.850;10.662;2022-09-09T13:12:02;1.60;;;0.73;;
64932;SDS011;51446;53.850;10.662;2022-09-09T13:14:31;2.63;;;0.90;;
64932;SDS011;51446;53.850;10.662;2022-09-09T13:17:03;2.17;;;0.70;;
64932;SDS011;51446;53.850;10.662;2022-09-09T13:19:31;3.15;;;0.93;;
64932;SDS011;51446;53.850;10.662;2022-09-09T13:22:00;2.25;;;0.88;;
64932;SDS011;51446;53.850;10.662;2022-09-09T13:24:38;2.15;;;1.00;;
64932;SDS011;51446;53.850;10.662;2022-09-09T13:27:04;1.43;;;0.73;;
64932;SDS011;51446;53.850;10.662;2022-09-09T13:29:52;2.88;;;1.13;;
64932;SDS011;51446;53.850;10.662;2022-09-09T13:32:19;3.33;;;0.80;;
64932;SDS011;51446;53.850;10.662;2022-09-09T13:34:51;1.60;;;0.90;;
64932;SDS011;51446;53.850;10.662;2022-09-09T13:37:32;5.38;;;0.95;;
64932;SDS011;51446;53.850;10.662;2022-09-09T13:39:59;2.90;;;0.80;;
64932;SDS011;51446;53.850;10.662;2022-09-09T13:42:30;2.20;;;0.88;;
64932;SDS011;51446;53.850;10.662;2022-09-09T13:44:57;1.50;;;0.80;;
64932;SDS011;51446;53.850;10.662;2022-09-09T13:47:34;4.10;;;1.20;;
64932;SDS011;51446;53.850;10.662;2022-09-09T13:50:17;1.23;;;0.70;;
64932;SDS011;51446;53.850;10.662;2022-09-09T13:52:48;5.35;;;1.00;;
64932;SDS011;51446;53.850;10.662;2022-09-09T13:55:16;5.53;;;1.40;;
64932;SDS011;51446;53.850;10.662;2022-09-09T13:57:52;5.40;;;1.10;;
64932;SDS011;51446;53.850;10.662;2022-09-09T14:00:19;2.27;;;0.87;;
64932;SDS011;51446;53.850;10.662;2022-09-09T14:02:45;2.60;;;1.08;;
64932;SDS011;51446;53.850;10.662;2022-09-09T14:05:11;2.25;;;0.90;;
64932;SDS011;51446;53.850;10.662;2022-09-09T14:07:37;3.27;;;1.20;;
64932;SDS011;51446;53.850;10.662;2022-09-09T14:10:05;2.20;;;0.90;;
64932;SDS011;51446;53.850;10.662;2022-09-09T14:12:31;1.98;;;1.00;;
64932;SDS011;51446;53.850;10.662;2022-09-09T14:14:56;2.00;;;1.07;;
64932;SDS011;51446;53.850;10.662;2022-09-09T14:17:21;2.37;;;1.20;;
64932;SDS011;51446;53.850;10.662;2022-09-09T14:19:47;4.97;;;1.10;;
64932;SDS011;51446;53.850;10.662;2022-09-09T14:22:13;2.40;;;0.90;;
64932;SDS011;51446;53.850;10.662;2022-09-09T14:24:39;1.20;;;1.10;;
64932;SDS011;51446;53.850;10.662;2022-09-09T14:27:04;2.30;;;1.30;;
64932;SDS011;51446;53.850;10.662;2022-09-09T14:29:29;5.53;;;1.10;;
64932;SDS011;51446;53.850;10.662;2022-09-09T14:31:54;2.40;;;1.33;;
64932;SDS011;51446;53.850;10.662;2022-09-09T14:34:20;2.13;;;1.33;;
64932;SDS011;51446;53.850;10.662;2022-09-09T14:36:45;2.70;;;1.40;;
64932;SDS011;51446;53.850;10.662;2022-09-09T14:39:11;2.95;;;1.33;;
64932;SDS011;51446;53.850;10.662;2022-09-09T14:41:37;5.30;;;1.70;;
64932;SDS011;51446;53.850;10.662;2022-09-09T14:44:02;4.70;;;1.70;;
64932;SDS011;51446;53.850;10.662;2022-09-09T14:46:28;5.87;;;2.00;;
64932;SDS011;51446;53.850;10.662;2022-09-09T14:48:53;6.30;;;2.27;;
64932;SDS011;51446;53.850;10.662;2022-09-09T14:51:20;4.63;;;1.93;;
64932;SDS011;51446;53.850;10.662;2022-09-09T14:53:47;7.20;;;2.10;;
64932;SDS011;51446;53.850;10.662;2022-09-09T14:56:14;2.67;;;1.88;;
64932;SDS011;51446;53.850;10.662;2022-09-09T14:58:41;2.53;;;1.70;;
64932;SDS011;51446;53.850;10.662;2022-09-09T15:01:07;3.70;;;1.70;;
64932;SDS011;51446;53.850;10.662;2022-09-09T15:03:37;4.03;;;1.83;;
64932;SDS011;51446;53.850;10.662;2022-09-09T15:06:05;3.50;;;1.80;;
64932;SDS011;51446;53.850;10.662;2022-09-09T15:08:35;3.60;;;1.67;;
64932;SDS011;51446;53.850;10.662;2022-09-09T15:11:01;3.33;;;1.75;;
64932;SDS011;51446;53.850;10.662;2022-09-09T15:13:28;4.50;;;1.80;;
64932;SDS011;51446;53.850;10.662;2022-09-09T15:15:53;6.63;;;1.50;;
64932;SDS011;51446;53.850;10.662;2022-09-09T15:18:19;5.00;;;1.73;;
64932;SDS011;51446;53.850;10.662;2022-09-09T15:20:45;3.60;;;1.70;;
64932;SDS011;51446;53.850;10.662;2022-09-09T15:23:11;5.37;;;1.80;;
64932;SDS011;51446;53.850;10.662;2022-09-09T15:25:37;3.30;;;1.60;;
64932;SDS011;51446;53.850;10.662;2022-09-09T15:28:02;2.67;;;1.47;;
64932;SDS011;51446;53.850;10.662;2022-09-09T15:30:27;4.60;;;1.60;;
64932;SDS011;51446;53.850;10.662;2022-09-09T15:32:53;2.17;;;1.50;;
64932;SDS011;51446;53.850;10.662;2022-09-09T15:35:18;4.53;;;1.10;;
64932;SDS011;51446;53.850;10.662;2022-09-09T15:37:43;3.03;;;1.27;;
64932;SDS011;51446;53.850;10.662;2022-09-09T15:40:10;4.80;;;1.20;;
64932;SDS011;51446;53.850;10.662;2022-09-09T15:42:35;3.10;;;1.15;;
64932;SDS011;51446;53.850;10.662;2022-09-09T15:45:00;3.30;;;1.00;;
64932;SDS011;51446;53.850;10.662;2022-09-09T15:47:26;2.07;;;0.90;;
64932;SDS011;51446;53.850;10.662;2022-09-09T15:49:52;4.28;;;1.20;;
64932;SDS011;51446;53.850;10.662;2022-09-09T15:52:17;1.43;;;0.80;;
64932;SDS011;51446;53.850;10.662;2022-09-09T15:54:42;4.20;;;0.97;;
64932;SDS011;51446;53.850;10.662;2022-09-09T15:57:09;2.43;;;1.20;;
64932;SDS011;51446;53.850;10.662;2022-09-09T15:59:37;1.33;;;1.00;;
64932;SDS011;51446;53.850;10.662;2022-09-09T16:02:02;1.33;;;1.10;;
64932;SDS011;51446;53.850;10.662;2022-09-09T16:04:29;2.83;;;1.10;;
64932;SDS011;51446;53.850;10.662;2022-09-09T16:07:02;1.70;;;0.90;;
64932;SDS011;51446;53.850;10.662;2022-09-09T16:09:28;2.20;;;1.20;;
64932;SDS011;51446;53.850;10.662;2022-09-09T16:12:01;2.25;;;1.38;;
64932;SDS011;51446;53.850;10.662;2022-09-09T16:14:27;1.63;;;1.20;;
64932;SDS011;51446;53.850;10.662;2022-09-09T16:16:53;3.05;;;1.40;;
64932;SDS011;51446;53.850;10.662;2022-09-09T16:19:18;3.70;;;1.20;;
64932;SDS011;51446;53.850;10.662;2022-09-09T16:21:47;2.10;;;1.10;;
64932;SDS011;51446;53.850;10.662;2022-09-09T16:24:15;1.85;;;1.20;;
64932;SDS011;51446;53.850;10.662;2022-09-09T16:26:43;4.70;;;1.30;;
64932;SDS011;51446;53.850;10.662;2022-09-09T16:29:10;3.85;;;1.48;;
64932;SDS011;51446;53.850;10.662;2022-09-09T16:31:36;3.70;;;1.17;;
64932;SDS011;51446;53.850;10.662;2022-09-09T16:34:01;2.17;;;1.30;;
64932;SDS011;51446;53.850;10.662;2022-09-09T16:36:29;3.30;;;1.40;;
64932;SDS011;51446;53.850;10.662;2022-09-09T16:38:57;2.30;;;1.20;;